createdAt,value
2022-09-07T00:02:09.252Z,1.43
2022-09-07T00:04:39.954Z,1.27
2022-09-07T00:07:10.598Z,1.50
2022-09-07T00:09:41.517Z,1.30
2022-09-07T00:12:12.187Z,1.50
2022-09-07T00:14:42.927Z,1.33
2022-09-07T00:17:13.591Z,1.13
2022-09-07T00:19:44.554Z,1.50
2022-09-07T00:22:15.214Z,1.00
2022-09-07T00:24:45.967Z,1.57
2022-09-07T00:27:16.600Z,1.80
2022-09-07T00:29:47.611Z,1.47
2022-09-07T00:32:18.295Z,1.53
2022-09-07T00:34:49.656Z,1.30
2022-09-07T00:37:20.307Z,1.47
2022-09-07T00:39:51.174Z,1.17
2022-09-07T00:42:23.381Z,1.50
2022-09-07T00:45:13.056Z,1.47
2022-09-07T00:47:49.680Z,1.20
2022-09-07T00:50:24.099Z,1.30
2022-09-07T00:52:58.405Z,1.10
2022-09-07T00:55:30.822Z,1.30
2022-09-07T00:58:02.384Z,1.30
2022-09-07T01:00:33.441Z,1.40
2022-09-07T01:03:05.789Z,1.53
2022-09-07T01:05:39.644Z,1.17
2022-09-07T01:08:11.194Z,1.43
2022-09-07T01:10:42.189Z,1.33
2022-09-07T01:13:12.834Z,1.10
2022-09-07T01:15:47.611Z,1.30
2022-09-07T01:18:24.763Z,1.20
2022-09-07T01:21:18.157Z,1.57
2022-09-07T01:24:16.974Z,1.23
2022-09-07T01:27:01.824Z,1.30
2022-09-07T01:29:35.941Z,1.60
2022-09-07T01:32:11.488Z,1.50
2022-09-07T01:34:44.337Z,1.57
2022-09-07T01:37:18.977Z,2.00
2022-09-07T01:39:52.898Z,1.40
2022-09-07T01:42:26.571Z,1.23
2022-09-07T01:44:59.541Z,1.10
2022-09-07T01:47:33.846Z,1.13
2022-09-07T01:50:08.873Z,1.67
2022-09-07T01:52:43.210Z,1.40
2022-09-07T01:55:16.809Z,1.33
2022-09-07T01:57:51.145Z,1.60
2022-09-07T02:00:23.384Z,1.10
2022-09-07T02:02:56.808Z,1.37
2022-09-07T02:05:30.810Z,1.47
2022-09-07T02:08:04.769Z,1.47
2022-09-07T02:10:39.194Z,1.53
2022-09-07T02:13:12.962Z,1.50
2022-09-07T02:15:48.204Z,1.50
2022-09-07T02:18:20.299Z,1.73
2022-09-07T02:20:53.591Z,1.70
2022-09-07T02:23:27.424Z,1.90
2022-09-07T02:26:01.155Z,1.37
2022-09-07T02:28:34.507Z,1.37
2022-09-07T02:31:05.710Z,1.40
2022-09-07T02:33:55.572Z,1.20
2022-09-07T02:36:29.433Z,1.73
2022-09-07T02:39:00.450Z,1.30
2022-09-07T02:41:36.867Z,1.70
2022-09-07T02:44:10.419Z,2.37
2022-09-07T02:50:20.002Z,1.27
2022-09-07T02:52:55.330Z,1.50
2022-09-07T02:55:30.617Z,1.50
2022-09-07T02:58:07.820Z,1.50
2022-09-07T03:00:41.891Z,1.20
2022-09-07T03:03:17.268Z,1.83
2022-09-07T03:05:51.134Z,1.87
2022-09-07T03:08:25.448Z,1.57
2022-09-07T03:10:57.176Z,1.80
2022-09-07T03:13:29.788Z,1.80
2022-09-07T03:16:00.683Z,1.87
2022-09-07T03:18:31.680Z,1.73
2022-09-07T03:21:02.398Z,1.93
2022-09-07T03:23:33.575Z,1.77
2022-09-07T03:26:04.683Z,1.80
2022-09-07T03:28:35.314Z,1.90
2022-09-07T03:31:06.295Z,1.60
2022-09-07T03:33:37.101Z,1.90
2022-09-07T03:36:08.131Z,1.73
2022-09-07T03:38:38.812Z,2.13
2022-09-07T03:41:10.083Z,1.67
2022-09-07T03:43:40.743Z,2.00
2022-09-07T03:46:11.958Z,2.00
2022-09-07T03:48:42.655Z,1.90
2022-09-07T03:51:14.342Z,1.40
2022-09-07T03:53:46.726Z,2.00
2022-09-07T03:56:20.436Z,1.83
2022-09-07T03:58:52.470Z,2.10
2022-09-07T04:01:24.874Z,1.83
2022-09-07T04:04:02.011Z,2.20
2022-09-07T04:06:30.391Z,2.20
2022-09-07T04:09:04.463Z,1.80
2022-09-07T04:11:36.102Z,2.30
2022-09-07T04:14:07.293Z,2.17
2022-09-07T04:16:38.166Z,2.47
2022-09-07T04:19:27.726Z,1.90
2022-09-07T04:21:58.439Z,2.63
2022-09-07T04:24:29.542Z,2.50
2022-09-07T04:27:00.494Z,2.10
2022-09-07T04:29:31.176Z,2.00
2022-09-07T04:32:01.834Z,2.00
2022-09-07T04:34:32.741Z,2.67
2022-09-07T04:37:03.430Z,2.20
2022-09-07T04:39:34.105Z,2.10
2022-09-07T04:42:05.180Z,1.80
2022-09-07T04:44:36.054Z,1.93
2022-09-07T04:47:07.575Z,1.83
2022-09-07T04:49:38.645Z,2.00
2022-09-07T04:52:09.404Z,1.80
2022-09-07T04:54:40.070Z,2.33
2022-09-07T04:57:12.918Z,2.37
2022-09-07T04:59:43.767Z,3.13
2022-09-07T05:02:14.568Z,2.10
2022-09-07T05:04:45.439Z,1.93
2022-09-07T05:07:16.235Z,2.40
2022-09-07T05:09:46.914Z,2.00
2022-09-07T05:12:17.699Z,2.10
2022-09-07T05:14:48.340Z,2.40
2022-09-07T05:17:19.498Z,2.10
2022-09-07T05:19:51.327Z,2.30
2022-09-07T05:22:22.494Z,1.80
2022-09-07T05:24:53.109Z,2.10
2022-09-07T05:27:24.613Z,2.17
2022-09-07T05:32:27.664Z,2.23
2022-09-07T05:34:58.315Z,2.20
2022-09-07T05:37:28.975Z,2.30
2022-09-07T05:39:59.701Z,2.30
2022-09-07T05:42:31.212Z,2.63
2022-09-07T05:45:02.103Z,2.03
2022-09-07T05:50:11.995Z,2.77
2022-09-07T05:52:43.309Z,2.97
2022-09-07T05:55:29.527Z,2.20
2022-09-07T05:57:46.281Z,2.50
2022-09-07T06:00:17.664Z,2.70
2022-09-07T06:02:48.360Z,2.30
2022-09-07T06:05:19.267Z,2.03
2022-09-07T06:07:50.546Z,2.47
2022-09-07T06:12:54.354Z,2.50
2022-09-07T06:15:24.992Z,2.67
2022-09-07T06:17:55.640Z,2.33
2022-09-07T06:20:26.640Z,2.40
2022-09-07T06:22:57.455Z,2.20
2022-09-07T06:25:28.100Z,2.13
2022-09-07T06:27:59.752Z,1.90
2022-09-07T06:30:30.457Z,2.23
2022-09-07T06:33:01.116Z,1.90
2022-09-07T06:35:31.800Z,2.07
2022-09-07T06:38:02.727Z,2.20
2022-09-07T06:40:35.807Z,2.43
2022-09-07T06:43:06.560Z,2.10
2022-09-07T06:45:37.443Z,2.10
2022-09-07T06:48:08.324Z,2.23
2022-09-07T06:50:39.830Z,2.10
2022-09-07T06:55:46.784Z,1.87
2022-09-07T06:58:17.407Z,1.93
2022-09-07T07:00:48.138Z,2.17
2022-09-07T07:03:19.225Z,2.57
2022-09-07T07:05:54.610Z,2.10
2022-09-07T07:08:27.044Z,1.97
2022-09-07T07:10:57.782Z,2.00
2022-09-07T07:13:28.404Z,2.20
2022-09-07T07:16:06.348Z,2.03
2022-09-07T07:18:38.155Z,1.90
2022-09-07T07:21:10.931Z,2.47
2022-09-07T07:23:42.473Z,1.87
2022-09-07T07:26:16.227Z,2.00
2022-09-07T07:29:03.830Z,2.17
2022-09-07T07:31:21.459Z,2.00
2022-09-07T07:33:53.510Z,1.80
2022-09-07T07:36:25.953Z,1.83
2022-09-07T07:44:04.246Z,2.30
2022-09-07T07:46:34.880Z,1.87
2022-09-07T07:49:05.569Z,2.07
2022-09-07T07:54:08.668Z,2.00
2022-09-07T07:56:39.411Z,2.00
2022-09-07T07:59:15.048Z,2.43
2022-09-07T08:01:44.022Z,2.30
2022-09-07T08:04:14.824Z,1.90
2022-09-07T08:06:45.717Z,2.60
2022-09-07T08:09:16.484Z,2.10
2022-09-07T08:11:48.367Z,2.17
2022-09-07T08:14:18.938Z,1.80
2022-09-07T08:16:49.536Z,2.00
2022-09-07T08:19:20.055Z,1.73
2022-09-07T08:21:50.686Z,1.97
2022-09-07T08:24:21.382Z,1.90
2022-09-07T08:26:52.807Z,1.90
2022-09-07T08:29:23.541Z,1.83
2022-09-07T08:31:54.274Z,1.80
2022-09-07T08:34:25.121Z,1.93
2022-09-07T08:36:55.718Z,1.50
2022-09-07T08:39:26.300Z,2.27
2022-09-07T08:42:25.014Z,1.83
2022-09-07T08:44:58.481Z,2.10
2022-09-07T08:50:15.294Z,1.87
2022-09-07T08:52:49.967Z,1.77
2022-09-07T08:55:24.808Z,1.90
2022-09-07T08:57:59.571Z,1.87
2022-09-07T09:00:31.313Z,1.83
2022-09-07T09:08:28.266Z,1.97
2022-09-07T09:11:04.167Z,1.72
2022-09-07T09:13:52.281Z,1.67
2022-09-07T09:16:26.403Z,1.87
2022-09-07T09:19:06.327Z,1.93
2022-09-07T09:21:37.424Z,1.90
2022-09-07T09:26:54.861Z,2.03
2022-09-07T09:29:25.795Z,1.80
2022-09-07T09:31:56.754Z,2.47
2022-09-07T09:34:31.201Z,2.03
2022-09-07T09:36:59.743Z,1.93
2022-09-07T09:39:33.212Z,1.98
2022-09-07T09:42:16.415Z,1.75
2022-09-07T09:44:48.201Z,2.05
2022-09-07T09:47:31.691Z,2.87
2022-09-07T09:49:56.627Z,5.08
2022-09-07T09:52:31.807Z,5.35
2022-09-07T09:55:33.746Z,4.12
2022-09-07T10:00:29.915Z,1.77
2022-09-07T10:08:23.100Z,2.08
2022-09-07T10:10:59.843Z,2.58
2022-09-07T10:13:35.418Z,2.10
2022-09-07T10:16:09.618Z,1.92
2022-09-07T10:18:43.052Z,2.27
2022-09-07T10:21:29.234Z,1.98
2022-09-07T10:24:03.557Z,2.27
2022-09-07T10:26:36.535Z,1.87
2022-09-07T10:32:19.579Z,2.33
2022-09-07T10:34:57.224Z,2.00
2022-09-07T10:37:34.444Z,2.30
2022-09-07T10:40:27.932Z,2.10
2022-09-07T10:45:42.915Z,2.50
2022-09-07T10:48:17.117Z,2.22
2022-09-07T10:50:51.020Z,2.05
2022-09-07T10:53:41.715Z,2.30
2022-09-07T10:56:08.437Z,2.15
2022-09-07T10:59:03.901Z,2.12
2022-09-07T11:01:24.987Z,2.05
2022-09-07T11:04:06.574Z,2.05
2022-09-07T11:06:41.260Z,2.22
2022-09-07T11:09:32.575Z,2.25
2022-09-07T11:12:07.163Z,1.95
2022-09-07T11:14:42.943Z,1.70
2022-09-07T11:17:19.010Z,2.45
2022-09-07T11:22:37.213Z,2.50
2022-09-07T11:27:49.256Z,2.33
2022-09-07T11:30:23.884Z,2.02
2022-09-07T11:33:02.742Z,2.83
2022-09-07T11:35:44.262Z,2.37
2022-09-07T11:38:27.148Z,2.92
2022-09-07T11:44:09.987Z,2.27
2022-09-07T11:46:43.795Z,1.98
2022-09-07T11:49:20.569Z,2.42
2022-09-07T11:51:54.772Z,2.67
2022-09-07T11:54:43.230Z,2.10
2022-09-07T12:00:27.865Z,2.87
2022-09-07T12:07:01.177Z,2.15
2022-09-07T12:09:42.871Z,1.90
2022-09-07T12:12:50.509Z,2.37
2022-09-07T12:15:27.010Z,2.60
2022-09-07T12:18:06.309Z,2.17
2022-09-07T12:20:43.438Z,2.33
2022-09-07T12:23:31.578Z,2.02
2022-09-07T12:35:38.176Z,2.17
2022-09-07T12:38:30.305Z,2.40
2022-09-07T12:41:02.745Z,2.37
2022-09-07T12:43:43.823Z,2.47
2022-09-07T12:46:23.562Z,2.50
2022-09-07T12:54:15.196Z,2.55
2022-09-07T12:57:29.032Z,2.33
2022-09-07T12:59:45.387Z,2.65
2022-09-07T13:05:16.397Z,2.45
2022-09-07T13:08:17.212Z,2.17
2022-09-07T13:10:48.074Z,2.72
2022-09-07T13:16:17.641Z,2.72
2022-09-07T13:18:48.530Z,2.00
2022-09-07T13:21:41.685Z,2.45
2022-09-07T13:24:48.004Z,2.90
2022-09-07T13:27:36.780Z,2.20
2022-09-07T13:30:23.733Z,2.30
2022-09-07T13:33:08.699Z,2.62
2022-09-07T13:35:37.983Z,2.77
2022-09-07T13:38:13.678Z,2.60
2022-09-07T13:41:04.986Z,2.85
2022-09-07T13:43:37.746Z,2.70
2022-09-07T13:46:11.994Z,2.72
2022-09-07T13:48:46.483Z,2.27
2022-09-07T13:51:20.427Z,3.47
2022-09-07T13:54:00.370Z,2.90
2022-09-07T13:56:37.821Z,1.90
2022-09-07T13:59:18.648Z,2.60
2022-09-07T14:01:51.080Z,2.35
2022-09-07T14:04:28.185Z,2.40
2022-09-07T14:07:06.863Z,2.45
2022-09-07T14:09:37.914Z,2.58
2022-09-07T14:12:17.217Z,2.40
2022-09-07T14:14:48.354Z,2.27
2022-09-07T14:17:20.858Z,2.37
2022-09-07T14:19:52.925Z,2.22
2022-09-07T14:22:26.901Z,2.60
2022-09-07T14:24:59.294Z,2.35
2022-09-07T14:27:35.091Z,2.55
2022-09-07T14:30:29.121Z,2.83
2022-09-07T14:33:03.160Z,2.75
2022-09-07T14:35:37.712Z,3.10
2022-09-07T14:38:11.300Z,2.92
2022-09-07T14:40:42.751Z,3.58
2022-09-07T14:43:31.779Z,3.83
2022-09-07T14:46:17.671Z,3.05
2022-09-07T14:48:51.705Z,3.27
2022-09-07T14:51:35.229Z,3.58
2022-09-07T14:53:59.576Z,3.87
2022-09-07T14:56:33.028Z,4.53
2022-09-07T14:59:03.604Z,4.62
2022-09-07T15:01:38.932Z,4.22
2022-09-07T15:04:18.710Z,3.80
2022-09-07T15:07:04.555Z,3.27
2022-09-07T15:09:31.242Z,4.03
2022-09-07T15:12:30.093Z,3.90
2022-09-07T15:14:55.347Z,4.20
2022-09-07T15:17:44.547Z,3.70
2022-09-07T15:20:00.959Z,4.42
2022-09-07T15:22:40.668Z,4.17
2022-09-07T15:25:15.056Z,4.28
2022-09-07T15:27:45.819Z,3.83
2022-09-07T15:30:17.426Z,4.53
2022-09-07T15:32:49.324Z,3.27
2022-09-07T15:35:20.390Z,4.15
2022-09-07T15:38:59.431Z,4.00
2022-09-07T15:40:27.108Z,3.75
2022-09-07T15:43:02.049Z,3.95
2022-09-07T15:45:30.184Z,4.08
2022-09-07T15:48:00.883Z,4.25
2022-09-07T15:50:31.582Z,4.27
2022-09-07T15:53:02.767Z,4.17
2022-09-07T15:55:33.489Z,4.00
2022-09-07T15:58:11.707Z,5.13
2022-09-07T16:00:36.917Z,5.43
2022-09-07T16:03:08.623Z,5.22
2022-09-07T16:05:44.152Z,4.95
2022-09-07T16:11:05.766Z,5.73
2022-09-07T16:13:24.343Z,5.77
2022-09-07T16:15:55.343Z,5.63
2022-09-07T16:18:26.612Z,5.57
2022-09-07T16:20:58.583Z,5.63
2022-09-07T16:23:29.272Z,4.87
2022-09-07T16:26:01.356Z,5.13
2022-09-07T16:28:32.760Z,4.87
2022-09-07T16:31:09.004Z,5.13
2022-09-07T16:36:19.819Z,5.13
2022-09-07T16:38:51.813Z,4.40
2022-09-07T16:41:26.938Z,4.23
2022-09-07T16:43:59.195Z,4.23
2022-09-07T16:46:31.476Z,4.07
2022-09-07T16:49:02.354Z,4.13
2022-09-07T16:51:33.100Z,4.50
2022-09-07T16:54:03.868Z,4.05
2022-09-07T16:56:38.944Z,4.20
2022-09-07T16:59:10.148Z,3.43
2022-09-07T17:01:42.460Z,3.87
2022-09-07T17:04:13.684Z,3.70
2022-09-07T17:06:44.305Z,3.50
2022-09-07T17:09:15.387Z,3.87
2022-09-07T17:11:46.028Z,3.53
2022-09-07T17:14:16.857Z,4.10
2022-09-07T17:16:47.462Z,3.30
2022-09-07T17:19:33.693Z,3.33
2022-09-07T17:21:52.549Z,3.43
2022-09-07T17:24:23.572Z,4.20
2022-09-07T17:26:54.200Z,2.60
2022-09-07T17:29:24.896Z,3.57
2022-09-07T17:34:29.442Z,3.22
2022-09-07T17:37:03.210Z,3.20
2022-09-07T17:39:34.189Z,3.53
2022-09-07T17:42:04.980Z,3.40
2022-09-07T17:44:38.173Z,3.87
2022-09-07T17:47:08.121Z,4.43
2022-09-07T17:49:38.800Z,4.57
2022-09-07T17:52:09.345Z,4.67
2022-09-07T17:54:40.267Z,4.50
2022-09-07T17:57:10.791Z,5.00
2022-09-07T18:02:15.143Z,5.13
2022-09-07T18:04:45.727Z,5.47
2022-09-07T18:07:16.296Z,5.43
2022-09-07T18:09:47.034Z,6.33
2022-09-07T18:12:17.655Z,5.80
2022-09-07T18:14:48.156Z,5.87
2022-09-07T18:17:19.001Z,5.33
2022-09-07T18:19:49.773Z,4.87
2022-09-07T18:22:20.435Z,4.87
2022-09-07T18:24:52.299Z,5.10
2022-09-07T18:27:22.928Z,5.47
2022-09-07T18:29:53.512Z,5.37
2022-09-07T18:32:24.405Z,4.43
2022-09-07T18:34:54.944Z,4.63
2022-09-07T18:37:25.509Z,4.63
2022-09-07T18:39:56.346Z,4.67
2022-09-07T18:42:26.999Z,5.07
2022-09-07T18:47:31.465Z,5.23
2022-09-07T18:50:02.562Z,4.63
2022-09-07T18:55:07.198Z,4.80
2022-09-07T18:57:38.283Z,4.47
2022-09-07T19:00:12.707Z,4.83
2022-09-07T19:02:43.372Z,5.40
2022-09-07T19:07:46.322Z,5.53
2022-09-07T19:10:17.908Z,5.30
2022-09-07T19:12:48.411Z,5.17
2022-09-07T19:15:20.657Z,4.90
2022-09-07T19:17:51.151Z,5.30
2022-09-07T19:20:22.776Z,4.93
2022-09-07T19:22:53.580Z,5.40
2022-09-07T19:25:24.627Z,4.63
2022-09-07T19:27:55.144Z,5.20
2022-09-07T19:30:25.775Z,4.77
2022-09-07T19:32:59.668Z,4.80
2022-09-07T19:35:29.027Z,5.77
2022-09-07T19:37:59.663Z,4.63
2022-09-07T19:40:30.455Z,4.80
2022-09-07T19:43:02.672Z,5.37
2022-09-07T19:45:33.506Z,4.70
2022-09-07T19:48:04.658Z,4.63
2022-09-07T19:50:35.325Z,5.47
2022-09-07T19:53:06.153Z,5.03
2022-09-07T19:55:36.647Z,4.93
2022-09-07T19:58:07.898Z,4.43
2022-09-07T20:00:39.557Z,4.43
2022-09-07T20:03:10.789Z,4.97
2022-09-07T20:05:41.992Z,3.90
2022-09-07T20:08:12.876Z,4.43
2022-09-07T20:10:43.575Z,3.80
2022-09-07T20:13:14.441Z,3.47
2022-09-07T20:15:45.039Z,4.13
2022-09-07T20:18:15.556Z,4.40
2022-09-07T20:20:49.435Z,4.13
2022-09-07T20:23:20.094Z,4.37
2022-09-07T20:25:59.632Z,4.30
2022-09-07T20:28:31.447Z,4.10
2022-09-07T20:31:08.000Z,4.33
2022-09-07T20:33:35.721Z,4.30
2022-09-07T20:36:08.329Z,4.47
2022-09-07T20:38:42.924Z,4.33
2022-09-07T20:41:16.385Z,4.30
2022-09-07T20:43:46.966Z,4.10
2022-09-07T20:46:18.279Z,4.20
2022-09-07T20:48:49.261Z,4.60
2022-09-07T20:51:21.642Z,4.10
2022-09-07T20:53:52.455Z,4.30
2022-09-07T20:56:25.735Z,4.13
2022-09-07T20:59:00.179Z,3.67
2022-09-07T21:01:32.579Z,4.20
2022-09-07T21:04:04.155Z,3.90
2022-09-07T21:06:34.832Z,4.10
2022-09-07T21:09:05.500Z,3.87
2022-09-07T21:11:36.953Z,4.80
2022-09-07T21:14:10.809Z,4.30
2022-09-07T21:16:42.669Z,4.27
2022-09-07T21:19:13.384Z,4.53
2022-09-07T21:21:45.061Z,4.40
2022-09-07T21:24:19.553Z,4.60
2022-09-07T21:26:51.202Z,5.33
2022-09-07T21:29:24.952Z,6.67
2022-09-07T21:31:57.009Z,6.13
2022-09-07T21:34:27.562Z,4.80
2022-09-07T21:36:58.161Z,4.20
2022-09-07T21:39:28.888Z,2.90
2022-09-07T21:41:59.632Z,4.00
2022-09-07T21:44:31.271Z,3.77
2022-09-07T21:47:01.908Z,3.60
2022-09-07T21:49:32.522Z,3.60
2022-09-07T21:52:03.225Z,3.50
2022-09-07T21:54:33.970Z,3.90
2022-09-07T21:57:04.635Z,3.37
2022-09-07T21:59:35.181Z,3.30
2022-09-07T22:02:05.752Z,3.47
2022-09-07T22:04:36.390Z,3.90
2022-09-07T22:07:07.895Z,4.30
2022-09-07T22:09:38.489Z,4.07
2022-09-07T22:12:09.609Z,3.53
2022-09-07T22:14:40.112Z,3.97
2022-09-07T22:17:10.783Z,3.50
2022-09-07T22:19:42.138Z,3.00
2022-09-07T22:22:12.747Z,2.50
2022-09-07T22:24:43.241Z,3.37
2022-09-07T22:27:14.010Z,2.00
2022-09-07T22:29:45.118Z,2.00
2022-09-07T22:32:15.641Z,1.90
2022-09-07T22:34:46.165Z,2.20
2022-09-07T22:37:16.846Z,2.40
2022-09-07T22:39:47.530Z,2.10
2022-09-07T22:42:18.269Z,2.10
2022-09-07T22:47:38.171Z,2.20
2022-09-07T22:55:48.205Z,2.40
2022-09-07T22:58:18.732Z,2.53
2022-09-07T23:00:49.318Z,2.63
2022-09-07T23:03:21.406Z,3.00
2022-09-07T23:05:52.011Z,2.70
2022-09-07T23:08:22.966Z,2.47
2022-09-07T23:10:54.010Z,2.43
2022-09-07T23:13:24.826Z,2.83
2022-09-07T23:15:55.483Z,3.23
2022-09-07T23:18:26.100Z,3.40
2022-09-07T23:21:00.527Z,3.00
2022-09-07T23:23:31.683Z,2.60
2022-09-07T23:26:04.955Z,2.50
2022-09-07T23:28:35.949Z,2.60
2022-09-07T23:31:06.779Z,3.13
2022-09-07T23:33:37.449Z,2.60
2022-09-07T23:36:09.425Z,2.83
2022-09-07T23:38:40.205Z,2.60
2022-09-07T23:41:10.788Z,2.53
2022-09-07T23:43:41.852Z,2.60
2022-09-07T23:46:12.903Z,2.83
2022-09-07T23:48:45.263Z,3.10
2022-09-07T23:51:21.318Z,3.13
2022-09-07T23:53:49.204Z,2.63
2022-09-07T23:56:20.023Z,2.60
2022-09-07T23:58:50.531Z,2.50
